Startpagina
METAR-TAF:

METAR-TAF

Vliegvelden :

Mauritius, Mauritius

breedte: 20-26S, lengte: 057-40E, hoogte: 55 m

Actueel weer

Dit bericht is 59 minuten geleden gemaakt, om 11:00 UTC
Wind 13 kt uit het zuidoosten
Temperatuur 27°C
Vochtigheid 62%
Druk 1018 hPa
Zicht 10 km of meer
Verspreide wolken op 1800 ft
Verspreide wolken op 10000 ft

METAR: FIMP 161100Z 13013KT 9999 SCT018 SCT100 27/19 Q1018

Tijdstip: 15:59 (11:59 UTC)

Verwachting

Dit bericht is 6 uur en het 49 minuten geleden gemaakt, om 05:10 UTC
Verwachting geldig van 16 om 06 UTC tot 17 om 12 UTC
Wind 10 kt uit het oosten
Zicht 10 km of meer
Verspreide wolken op 1500 ft
Kans 30% :
Tijdelijke
van 16 om 06 UTC tot 16 om 09 UTC
Zicht: 7000 m
Weinig wolken op 1000 ft
Gebroken wolken op 1400 ft
Gebroken wolken op 5000 ft
lichte regenbuien

TAF: FIMP 160510Z 1606/1712 10010KT 9999 SCT015 PROB30 TEMPO 1606/1609 7000 -SHRA FEW010 BKN014 BKN050

Waarnemingen en weersverwachtingen van meer dan 4000 vliegvelden (METAR en TAF).

De beschikbare stations zijn de gele en rode punten op de kaart.

Ga met uw muis naar het station om de naam te zien.

Klik dan om waarnemingen en weersverwachtingen te zien.

kaart wijzigen: klik op de groene knoppen met een zwart kruis om in te zoomen, op de groene knop met een streepje om uit te zoomen of op de groene pijlen voor aangrenzende kaarten.


METAR-TAF: